createdAt,value
2023-04-29T00:01:36.447Z,100.00
2023-04-29T00:04:04.528Z,100.00
2023-04-29T00:06:32.599Z,100.00
2023-04-29T00:09:00.468Z,100.00
2023-04-29T00:11:28.296Z,100.00
2023-04-29T00:13:56.212Z,100.00
2023-04-29T00:16:26.208Z,100.00
2023-04-29T00:18:54.407Z,100.00
2023-04-29T00:21:22.235Z,100.00
2023-04-29T00:23:50.147Z,100.00
2023-04-29T00:26:18.056Z,100.00
2023-04-29T00:28:46.053Z,100.00
2023-04-29T00:31:14.690Z,100.00
2023-04-29T00:33:44.641Z,100.00
2023-04-29T00:36:12.602Z,100.00
2023-04-29T00:38:40.476Z,100.00
2023-04-29T00:41:08.451Z,100.00
2023-04-29T00:43:36.365Z,100.00
2023-04-29T00:46:04.521Z,100.00
2023-04-29T00:48:33.108Z,100.00
2023-04-29T00:51:02.836Z,100.00
2023-04-29T00:53:31.573Z,100.00
2023-04-29T00:56:00.815Z,100.00
2023-04-29T00:58:33.540Z,100.00
2023-04-29T01:01:03.748Z,100.00
2023-04-29T01:03:32.977Z,100.00
2023-04-29T01:06:10.486Z,100.00
2023-04-29T01:08:49.630Z,100.00
2023-04-29T01:11:24.250Z,100.00
2023-04-29T01:13:55.952Z,100.00
2023-04-29T01:16:30.265Z,100.00
2023-04-29T01:19:01.456Z,100.00
2023-04-29T01:21:32.200Z,100.00
2023-04-29T01:24:01.980Z,100.00
2023-04-29T01:26:35.366Z,100.00
2023-04-29T01:29:19.839Z,100.00
2023-04-29T01:31:52.760Z,100.00
2023-04-29T01:34:27.511Z,100.00
2023-04-29T01:37:05.684Z,100.00
2023-04-29T01:39:42.822Z,100.00
2023-04-29T01:42:19.300Z,100.00
2023-04-29T01:44:51.159Z,100.00
2023-04-29T01:47:20.049Z,100.00
2023-04-29T01:49:47.899Z,100.00
2023-04-29T01:52:15.794Z,100.00
2023-04-29T01:54:45.332Z,100.00
2023-04-29T01:57:13.302Z,100.00
2023-04-29T01:59:42.099Z,100.00
2023-04-29T02:02:10.430Z,100.00
2023-04-29T02:04:38.451Z,100.00
2023-04-29T02:07:06.464Z,100.00
2023-04-29T02:09:34.387Z,100.00
2023-04-29T02:12:04.726Z,100.00
2023-04-29T02:14:36.817Z,100.00
2023-04-29T02:17:05.728Z,100.00
2023-04-29T02:19:33.705Z,100.00
2023-04-29T02:22:01.664Z,100.00
2023-04-29T02:24:29.636Z,100.00
2023-04-29T02:26:57.485Z,100.00
2023-04-29T02:29:29.850Z,100.00
2023-04-29T02:31:57.759Z,100.00
2023-04-29T02:34:25.667Z,100.00
2023-04-29T02:36:53.610Z,100.00
2023-04-29T02:39:21.720Z,100.00
2023-04-29T02:41:50.157Z,100.00
2023-04-29T02:44:18.051Z,100.00
2023-04-29T02:46:47.912Z,100.00
2023-04-29T02:49:15.796Z,100.00
2023-04-29T02:51:43.664Z,100.00
2023-04-29T02:54:11.959Z,100.00
2023-04-29T02:56:39.823Z,100.00
2023-04-29T02:59:07.708Z,100.00
2023-04-29T03:01:35.681Z,100.00
2023-04-29T03:04:05.522Z,100.00
2023-04-29T03:06:33.528Z,100.00
2023-04-29T03:09:01.393Z,100.00
2023-04-29T03:11:29.222Z,100.00
2023-04-29T03:13:57.467Z,100.00
2023-04-29T03:16:25.628Z,100.00
2023-04-29T03:18:53.655Z,100.00
2023-04-29T03:21:22.891Z,100.00
2023-04-29T03:23:50.786Z,100.00
2023-04-29T03:26:18.762Z,100.00
2023-04-29T03:28:46.794Z,100.00
2023-04-29T03:31:16.699Z,100.00
2023-04-29T03:33:44.785Z,100.00
2023-04-29T03:36:13.411Z,100.00
2023-04-29T03:38:42.673Z,100.00
2023-04-29T03:41:10.759Z,100.00
2023-04-29T03:43:38.749Z,100.00
2023-04-29T03:46:06.682Z,100.00
2023-04-29T03:48:34.555Z,100.00
2023-04-29T03:51:02.534Z,100.00
2023-04-29T03:53:30.477Z,100.00
2023-04-29T03:55:59.783Z,100.00
2023-04-29T03:58:28.171Z,100.00
2023-04-29T04:00:56.434Z,100.00
2023-04-29T04:03:26.123Z,100.00
2023-04-29T04:05:54.161Z,100.00
2023-04-29T04:08:22.029Z,100.00
2023-04-29T04:10:49.920Z,100.00
2023-04-29T04:13:19.163Z,100.00
2023-04-29T04:15:51.663Z,100.00
2023-04-29T04:18:19.700Z,100.00
2023-04-29T04:20:47.714Z,100.00
2023-04-29T04:23:15.750Z,100.00
2023-04-29T04:25:47.045Z,100.00
2023-04-29T04:28:14.979Z,100.00
2023-04-29T04:30:45.871Z,100.00
2023-04-29T04:33:13.801Z,100.00
2023-04-29T04:35:41.701Z,100.00
2023-04-29T04:38:11.404Z,100.00
2023-04-29T04:40:42.509Z,100.00
2023-04-29T04:43:10.669Z,100.00
2023-04-29T04:45:38.764Z,100.00
2023-04-29T04:48:08.197Z,100.00
2023-04-29T04:50:36.139Z,100.00
2023-04-29T04:53:03.979Z,100.00
2023-04-29T04:55:33.528Z,100.00
2023-04-29T04:58:01.419Z,100.00
2023-04-29T05:00:29.297Z,100.00
2023-04-29T05:02:57.375Z,100.00
2023-04-29T05:05:26.946Z,100.00
2023-04-29T05:07:54.878Z,100.00
2023-04-29T05:10:26.470Z,100.00
2023-04-29T05:12:54.399Z,100.00
2023-04-29T05:15:22.311Z,100.00
2023-04-29T05:17:50.209Z,100.00
2023-04-29T05:20:18.230Z,100.00
2023-04-29T05:22:47.605Z,100.00
2023-04-29T05:25:15.656Z,100.00
2023-04-29T05:27:43.550Z,100.00
2023-04-29T05:30:12.254Z,100.00
2023-04-29T05:32:40.758Z,100.00
2023-04-29T05:35:09.693Z,100.00
2023-04-29T05:37:37.631Z,100.00
2023-04-29T05:40:10.423Z,100.00
2023-04-29T05:42:38.282Z,100.00
2023-04-29T05:45:07.008Z,100.00
2023-04-29T05:47:34.987Z,100.00
2023-04-29T05:50:02.987Z,100.00
2023-04-29T05:52:30.996Z,100.00
2023-04-29T05:54:58.875Z,100.00
2023-04-29T05:57:28.278Z,100.00
2023-04-29T05:59:56.362Z,100.00
2023-04-29T06:02:24.402Z,100.00
2023-04-29T06:04:53.352Z,100.00
2023-04-29T06:07:21.828Z,100.00
2023-04-29T06:09:49.863Z,100.00
2023-04-29T06:12:17.805Z,100.00
2023-04-29T06:14:47.065Z,100.00
2023-04-29T06:17:15.349Z,100.00
2023-04-29T06:19:43.367Z,100.00
2023-04-29T06:22:11.242Z,100.00
2023-04-29T06:24:39.248Z,100.00
2023-04-29T06:27:07.150Z,100.00
2023-04-29T06:29:35.015Z,100.00
2023-04-29T06:32:04.525Z,100.00
2023-04-29T06:34:32.514Z,100.00
2023-04-29T06:37:00.408Z,100.00
2023-04-29T06:39:28.386Z,100.00
2023-04-29T06:41:56.699Z,100.00
2023-04-29T06:44:24.709Z,100.00
2023-04-29T06:46:52.708Z,100.00
2023-04-29T06:49:22.438Z,100.00
2023-04-29T06:51:50.481Z,100.00
2023-04-29T06:54:18.399Z,100.00
2023-04-29T06:56:47.284Z,100.00
2023-04-29T06:59:15.433Z,100.00
2023-04-29T07:01:44.700Z,100.00
2023-04-29T07:04:13.806Z,100.00
2023-04-29T07:06:46.835Z,100.00
2023-04-29T07:09:15.068Z,100.00
2023-04-29T07:11:43.212Z,100.00
2023-04-29T07:14:11.382Z,100.00
2023-04-29T07:16:39.357Z,100.00
2023-04-29T07:19:07.204Z,100.00
2023-04-29T07:21:35.926Z,100.00
2023-04-29T07:24:05.833Z,100.00
2023-04-29T07:26:33.916Z,100.00
2023-04-29T07:29:01.768Z,100.00
2023-04-29T07:31:29.941Z,100.00
2023-04-29T07:33:58.217Z,100.00
2023-04-29T07:36:26.116Z,100.00
2023-04-29T07:38:54.016Z,100.00
2023-04-29T07:41:23.269Z,100.00
2023-04-29T07:43:51.148Z,100.00
2023-04-29T07:46:19.157Z,100.00
2023-04-29T07:48:47.044Z,100.00
2023-04-29T07:51:15.346Z,100.00
2023-04-29T07:53:43.500Z,97.96
2023-04-29T07:56:11.603Z,94.97
2023-04-29T07:58:40.854Z,87.85
2023-04-29T08:01:10.253Z,86.11
2023-04-29T08:03:40.897Z,84.53
2023-04-29T08:06:10.133Z,79.69
2023-04-29T08:08:38.221Z,78.20
2023-04-29T08:11:06.812Z,76.18
2023-04-29T08:13:34.744Z,74.96
2023-04-29T08:16:04.082Z,74.36
2023-04-29T08:18:32.014Z,74.38
2023-04-29T08:20:59.973Z,74.89
2023-04-29T08:23:27.866Z,74.73
2023-04-29T08:25:56.099Z,71.31
2023-04-29T08:28:24.140Z,70.47
2023-04-29T08:30:52.253Z,71.32
2023-04-29T08:33:22.455Z,71.09
2023-04-29T08:35:51.046Z,68.79
2023-04-29T08:38:18.946Z,69.69
2023-04-29T08:40:47.608Z,67.12
2023-04-29T08:43:15.928Z,67.97
2023-04-29T08:45:44.801Z,68.07
2023-04-29T08:48:13.396Z,68.02
2023-04-29T08:50:43.613Z,68.23
2023-04-29T08:53:12.908Z,67.46
2023-04-29T08:55:43.611Z,67.10
2023-04-29T08:58:14.771Z,66.18
2023-04-29T09:00:44.766Z,65.77
2023-04-29T09:03:21.111Z,66.72
2023-04-29T09:05:55.079Z,66.64
2023-04-29T09:08:23.962Z,66.06
2023-04-29T09:10:52.843Z,65.16
2023-04-29T09:13:27.933Z,64.46
2023-04-29T09:19:37.790Z,62.32
2023-04-29T09:22:08.402Z,60.93
2023-04-29T09:24:38.019Z,60.36
2023-04-29T09:27:05.981Z,60.64
2023-04-29T09:29:35.019Z,60.61
2023-04-29T09:32:19.628Z,60.93
2023-04-29T09:34:47.543Z,59.60
2023-04-29T09:37:28.013Z,58.27
2023-04-29T09:39:56.567Z,57.65
2023-04-29T09:42:24.560Z,57.92
2023-04-29T09:44:53.151Z,56.86
2023-04-29T09:47:31.847Z,56.50
2023-04-29T09:50:12.710Z,57.34
2023-04-29T09:52:43.389Z,57.88
2023-04-29T09:55:12.745Z,55.52
2023-04-29T09:57:44.904Z,55.43
2023-04-29T10:00:14.719Z,56.01
2023-04-29T10:02:43.984Z,55.21
2023-04-29T10:05:13.369Z,54.86
2023-04-29T10:07:43.619Z,54.07
2023-04-29T10:10:13.758Z,54.09
2023-04-29T10:12:42.382Z,54.07
2023-04-29T10:15:19.203Z,55.57
2023-04-29T10:17:50.664Z,54.76
2023-04-29T10:20:24.538Z,53.46
2023-04-29T10:22:57.124Z,53.52
2023-04-29T10:25:28.197Z,53.09
2023-04-29T10:27:57.373Z,53.35
2023-04-29T10:30:25.513Z,53.61
2023-04-29T10:32:53.662Z,52.10
2023-04-29T10:35:25.817Z,52.26
2023-04-29T10:37:57.064Z,52.30
2023-04-29T10:40:32.616Z,51.70
2023-04-29T10:43:01.290Z,52.57
2023-04-29T10:45:31.869Z,52.57
2023-04-29T10:48:13.668Z,53.77
2023-04-29T10:51:09.880Z,54.53
2023-04-29T10:53:59.600Z,53.16
2023-04-29T10:56:38.275Z,53.87
2023-04-29T10:59:06.705Z,52.66
2023-04-29T11:01:45.917Z,51.16
2023-04-29T11:04:15.235Z,52.35
2023-04-29T11:06:46.081Z,53.08
2023-04-29T11:09:19.756Z,51.86
2023-04-29T11:11:50.181Z,52.24
2023-04-29T11:14:24.848Z,51.46
2023-04-29T11:16:54.761Z,51.73
2023-04-29T11:19:25.709Z,50.04
2023-04-29T11:22:16.058Z,50.20
2023-04-29T11:25:04.058Z,49.62
2023-04-29T11:27:33.680Z,51.20
2023-04-29T11:30:04.126Z,48.17
2023-04-29T11:32:34.049Z,48.68
2023-04-29T11:35:12.206Z,49.64
2023-04-29T11:37:41.399Z,47.85
2023-04-29T11:40:12.303Z,48.19
2023-04-29T11:42:43.542Z,48.70
2023-04-29T11:45:12.424Z,49.31
2023-04-29T11:47:44.905Z,50.37
2023-04-29T11:50:13.642Z,50.79
2023-04-29T11:52:41.732Z,51.43
2023-04-29T11:55:11.910Z,50.81
2023-04-29T11:57:40.270Z,49.41
2023-04-29T12:00:12.874Z,49.77
2023-04-29T12:02:44.836Z,52.10
2023-04-29T12:05:15.857Z,51.06
2023-04-29T12:07:44.520Z,51.48
2023-04-29T12:10:13.912Z,51.38
2023-04-29T12:12:43.777Z,52.54
2023-04-29T12:15:12.896Z,53.47
2023-04-29T12:17:41.345Z,54.05
2023-04-29T12:20:12.749Z,54.06
2023-04-29T12:22:40.947Z,55.28
2023-04-29T12:25:10.000Z,54.38
2023-04-29T12:27:41.475Z,54.75
2023-04-29T12:30:10.357Z,53.71
2023-04-29T12:32:39.272Z,53.36
2023-04-29T12:35:16.544Z,53.94
2023-04-29T12:37:44.528Z,53.98
2023-04-29T12:40:16.756Z,54.65
2023-04-29T12:42:46.657Z,55.25
2023-04-29T12:45:28.109Z,55.75
2023-04-29T12:47:57.561Z,55.79
2023-04-29T12:50:32.967Z,56.38
2023-04-29T12:53:01.489Z,56.27
2023-04-29T12:55:29.472Z,56.40
2023-04-29T12:58:00.861Z,56.54
2023-04-29T13:00:29.027Z,56.49
2023-04-29T13:02:57.304Z,55.94
2023-04-29T13:05:25.333Z,55.79
2023-04-29T13:07:54.094Z,55.46
2023-04-29T13:10:22.237Z,55.47
2023-04-29T13:12:50.167Z,55.54
2023-04-29T13:15:19.535Z,56.20
2023-04-29T13:17:47.462Z,55.60
2023-04-29T13:20:15.399Z,55.81
2023-04-29T13:22:43.654Z,57.14
2023-04-29T13:25:12.103Z,58.52
2023-04-29T13:27:40.229Z,58.94
2023-04-29T13:30:09.411Z,58.61
2023-04-29T13:32:45.015Z,57.37
2023-04-29T13:35:17.434Z,57.93
2023-04-29T13:37:45.540Z,58.41
2023-04-29T13:40:19.929Z,58.32
2023-04-29T13:42:50.400Z,58.37
2023-04-29T13:45:21.404Z,57.85
2023-04-29T13:50:47.221Z,57.28
2023-04-29T13:53:41.188Z,57.22
2023-04-29T14:01:37.802Z,56.01
2023-04-29T14:03:54.558Z,54.98
2023-04-29T14:06:22.530Z,54.72
2023-04-29T14:08:50.496Z,53.75
2023-04-29T14:11:19.711Z,53.42
2023-04-29T14:13:47.673Z,53.08
2023-04-29T14:16:15.619Z,53.54
2023-04-29T14:18:43.587Z,53.41
2023-04-29T14:21:12.881Z,52.52
2023-04-29T14:23:46.342Z,51.71
2023-04-29T14:26:27.270Z,50.72
2023-04-29T14:28:58.842Z,50.25
2023-04-29T14:31:29.256Z,50.70
2023-04-29T14:34:00.909Z,50.21
2023-04-29T14:36:30.421Z,49.15
2023-04-29T14:39:04.480Z,49.86
2023-04-29T14:41:32.424Z,49.43
2023-04-29T14:44:00.287Z,49.49
2023-04-29T14:46:32.770Z,51.28
2023-04-29T14:49:06.121Z,51.44
2023-04-29T14:51:39.466Z,52.18
2023-04-29T14:54:07.740Z,52.44
2023-04-29T14:56:38.283Z,52.83
2023-04-29T14:59:08.719Z,52.86
2023-04-29T15:01:36.942Z,53.61
2023-04-29T15:04:07.997Z,53.87
2023-04-29T15:06:40.830Z,54.48
2023-04-29T15:09:09.073Z,54.70
2023-04-29T15:11:37.204Z,55.81
2023-04-29T15:14:07.982Z,55.84
2023-04-29T15:17:53.289Z,55.92
2023-04-29T15:20:26.187Z,56.44
2023-04-29T15:22:54.751Z,56.63
2023-04-29T15:25:27.509Z,57.07
2023-04-29T15:27:59.242Z,57.21
2023-04-29T15:30:30.585Z,56.59
2023-04-29T15:33:02.366Z,57.46
2023-04-29T15:35:32.751Z,56.94
2023-04-29T15:38:03.459Z,57.78
2023-04-29T15:40:33.949Z,57.48
2023-04-29T15:43:01.966Z,57.77
2023-04-29T15:45:29.896Z,57.22
2023-04-29T15:47:59.195Z,58.33
2023-04-29T15:50:27.106Z,58.10
2023-04-29T15:52:56.019Z,58.57
2023-04-29T15:55:23.891Z,59.30
2023-04-29T15:57:51.804Z,58.87
2023-04-29T16:00:19.761Z,58.78
2023-04-29T16:02:47.648Z,58.75
2023-04-29T16:05:17.143Z,59.31
2023-04-29T16:07:45.125Z,59.17
2023-04-29T16:10:13.037Z,58.66
2023-04-29T16:12:41.029Z,59.00
2023-04-29T16:15:10.154Z,58.90
2023-04-29T16:17:38.117Z,58.93
2023-04-29T16:20:06.957Z,59.25
2023-04-29T16:22:36.333Z,59.17
2023-04-29T16:25:04.386Z,59.07
2023-04-29T16:27:32.370Z,59.25
2023-04-29T16:30:00.725Z,58.28
2023-04-29T16:32:29.229Z,59.07
2023-04-29T16:34:58.114Z,59.51
2023-04-29T16:37:26.909Z,60.31
2023-04-29T16:39:56.269Z,60.19
2023-04-29T16:42:24.105Z,60.44
2023-04-29T16:44:52.001Z,60.02
2023-04-29T16:47:20.372Z,61.67
2023-04-29T16:49:48.482Z,65.90
2023-04-29T16:52:16.382Z,74.80
2023-04-29T16:54:44.257Z,88.03
2023-04-29T16:57:14.588Z,95.14
2023-04-29T16:59:42.447Z,100.00
2023-04-29T17:02:10.767Z,100.00
2023-04-29T17:04:38.844Z,100.00
2023-04-29T17:07:06.814Z,100.00
2023-04-29T17:09:34.989Z,100.00
2023-04-29T17:12:03.843Z,100.00
2023-04-29T17:14:33.147Z,100.00
2023-04-29T17:17:01.044Z,100.00
2023-04-29T17:19:28.952Z,100.00
2023-04-29T17:21:57.011Z,100.00
2023-04-29T17:24:26.595Z,100.00
2023-04-29T17:26:54.501Z,100.00
2023-04-29T17:29:22.349Z,100.00
2023-04-29T17:31:59.670Z,100.00
2023-04-29T17:34:29.877Z,100.00
2023-04-29T17:36:57.991Z,100.00
2023-04-29T17:39:26.046Z,100.00
2023-04-29T17:41:53.954Z,100.00
2023-04-29T17:44:23.449Z,100.00
2023-04-29T17:46:53.032Z,100.00
2023-04-29T17:49:21.133Z,100.00
2023-04-29T17:51:49.010Z,100.00
2023-04-29T17:54:17.020Z,100.00
2023-04-29T17:56:44.927Z,100.00
2023-04-29T17:59:12.797Z,100.00
2023-04-29T18:01:40.796Z,100.00
2023-04-29T18:04:10.204Z,100.00
2023-04-29T18:06:38.160Z,100.00
2023-04-29T18:09:06.386Z,100.00
2023-04-29T18:11:34.245Z,100.00
2023-04-29T18:14:02.306Z,100.00
2023-04-29T18:16:30.251Z,100.00
2023-04-29T18:18:58.869Z,100.00
2023-04-29T18:21:29.028Z,100.00
2023-04-29T18:23:57.628Z,99.80
2023-04-29T18:26:26.205Z,100.00
2023-04-29T18:28:54.065Z,100.00
2023-04-29T18:31:23.282Z,100.00
2023-04-29T18:33:51.274Z,100.00
2023-04-29T18:36:21.248Z,100.00
2023-04-29T18:38:50.655Z,100.00
2023-04-29T18:41:18.585Z,100.00
2023-04-29T18:43:46.523Z,100.00
2023-04-29T18:46:14.538Z,100.00
2023-04-29T18:48:42.740Z,100.00
2023-04-29T18:51:10.880Z,100.00
2023-04-29T18:53:38.814Z,100.00
2023-04-29T18:56:08.616Z,100.00
2023-04-29T18:58:36.625Z,100.00
2023-04-29T19:01:07.705Z,100.00
2023-04-29T19:03:35.877Z,100.00
2023-04-29T19:06:03.939Z,100.00
2023-04-29T19:08:31.827Z,100.00
2023-04-29T19:11:00.767Z,100.00
2023-04-29T19:13:30.220Z,100.00
2023-04-29T19:15:58.684Z,100.00
2023-04-29T19:18:26.592Z,100.00
2023-04-29T19:20:56.075Z,100.00
2023-04-29T19:23:24.666Z,100.00
2023-04-29T19:25:52.566Z,100.00
2023-04-29T19:28:20.901Z,100.00
2023-04-29T19:30:50.198Z,100.00
2023-04-29T19:33:18.061Z,100.00
2023-04-29T19:35:45.962Z,100.00
2023-04-29T19:38:14.220Z,100.00
2023-04-29T19:40:44.821Z,100.00
2023-04-29T19:43:13.396Z,100.00
2023-04-29T19:45:41.285Z,100.00
2023-04-29T19:48:10.818Z,100.00
2023-04-29T19:50:40.106Z,100.00
2023-04-29T19:53:08.515Z,100.00
2023-04-29T19:55:36.465Z,100.00
2023-04-29T19:58:04.362Z,100.00
2023-04-29T20:00:32.470Z,100.00
2023-04-29T20:03:02.152Z,100.00
2023-04-29T20:05:31.530Z,100.00
2023-04-29T20:07:59.412Z,100.00
2023-04-29T20:10:29.800Z,100.00
2023-04-29T20:12:58.032Z,100.00
2023-04-29T20:15:26.198Z,100.00
2023-04-29T20:17:54.174Z,100.00
2023-04-29T20:20:25.119Z,100.00
2023-04-29T20:22:58.031Z,100.00
2023-04-29T20:25:27.237Z,100.00
2023-04-29T20:27:55.352Z,100.00
2023-04-29T20:30:23.479Z,100.00
2023-04-29T20:32:51.629Z,100.00
2023-04-29T20:35:20.784Z,100.00
2023-04-29T20:37:48.697Z,100.00
2023-04-29T20:40:18.422Z,100.00
2023-04-29T20:42:47.088Z,100.00
2023-04-29T20:45:15.236Z,100.00
2023-04-29T20:47:44.055Z,100.00
2023-04-29T20:50:12.434Z,100.00
2023-04-29T20:52:40.406Z,100.00
2023-04-29T20:55:09.495Z,100.00
2023-04-29T20:57:39.622Z,100.00
2023-04-29T21:00:09.705Z,100.00
2023-04-29T21:02:37.734Z,100.00
2023-04-29T21:05:06.436Z,100.00
2023-04-29T21:07:34.631Z,100.00
2023-04-29T21:10:02.659Z,100.00
2023-04-29T21:12:30.587Z,100.00
2023-04-29T21:15:00.320Z,100.00
2023-04-29T21:17:28.692Z,100.00
2023-04-29T21:19:57.091Z,100.00
2023-04-29T21:22:24.952Z,100.00
2023-04-29T21:24:52.898Z,100.00
2023-04-29T21:27:21.478Z,100.00
2023-04-29T21:29:49.473Z,100.00
2023-04-29T21:32:21.695Z,100.00
2023-04-29T21:34:49.980Z,100.00
2023-04-29T21:37:17.877Z,100.00
2023-04-29T21:39:45.735Z,100.00
2023-04-29T21:42:14.719Z,100.00
2023-04-29T21:44:42.764Z,100.00
2023-04-29T21:47:10.728Z,100.00
2023-04-29T21:49:39.996Z,100.00
2023-04-29T21:52:07.963Z,100.00
2023-04-29T21:54:35.913Z,100.00
2023-04-29T21:57:03.916Z,100.00
2023-04-29T21:59:34.507Z,100.00
2023-04-29T22:02:14.348Z,100.00
2023-04-29T22:04:43.720Z,100.00
2023-04-29T22:07:11.591Z,100.00
2023-04-29T22:09:39.554Z,100.00
2023-04-29T22:12:07.442Z,100.00
2023-04-29T22:14:35.308Z,100.00
2023-04-29T22:17:03.145Z,100.00
2023-04-29T22:19:31.218Z,100.00
2023-04-29T22:22:01.081Z,100.00
2023-04-29T22:24:29.006Z,100.00
2023-04-29T22:26:57.100Z,100.00
2023-04-29T22:29:25.099Z,100.00
2023-04-29T22:31:53.043Z,100.00
2023-04-29T22:34:21.033Z,100.00
2023-04-29T22:36:48.873Z,100.00
2023-04-29T22:39:18.101Z,100.00
2023-04-29T22:41:45.981Z,100.00
2023-04-29T22:44:13.975Z,100.00
2023-04-29T22:46:41.946Z,100.00
2023-04-29T22:49:09.920Z,100.00
2023-04-29T22:51:37.798Z,100.00
2023-04-29T22:54:05.813Z,100.00
2023-04-29T22:56:35.059Z,100.00
2023-04-29T22:59:03.035Z,100.00
2023-04-29T23:01:30.898Z,100.00
2023-04-29T23:03:58.754Z,100.00
2023-04-29T23:06:26.885Z,100.00
2023-04-29T23:08:55.011Z,100.00
2023-04-29T23:11:23.096Z,100.00
2023-04-29T23:13:52.888Z,100.00
2023-04-29T23:16:20.843Z,100.00
2023-04-29T23:18:48.729Z,100.00
2023-04-29T23:21:16.706Z,100.00
2023-04-29T23:23:44.622Z,100.00
2023-04-29T23:26:12.524Z,100.00
2023-04-29T23:28:40.367Z,100.00
2023-04-29T23:31:09.712Z,100.00
2023-04-29T23:33:37.607Z,100.00
2023-04-29T23:36:06.247Z,100.00
2023-04-29T23:38:34.147Z,100.00
2023-04-29T23:41:02.001Z,100.00
2023-04-29T23:43:29.947Z,100.00
2023-04-29T23:45:57.814Z,100.00
2023-04-29T23:48:27.113Z,100.00
2023-04-29T23:50:55.011Z,100.00
2023-04-29T23:53:22.906Z,100.00
2023-04-29T23:55:50.840Z,100.00
2023-04-29T23:58:18.700Z,100.00
